createdAt,value
2022-11-11T00:01:40.042Z,1.50
2022-11-11T00:04:08.810Z,1.45
2022-11-11T00:09:04.073Z,2.13
2022-11-11T00:11:31.474Z,2.25
2022-11-11T00:13:58.915Z,1.83
2022-11-11T00:16:46.327Z,2.22
2022-11-11T00:19:32.924Z,1.92
2022-11-11T00:22:17.620Z,2.47
2022-11-11T00:25:02.481Z,1.85
2022-11-11T00:27:29.918Z,1.83
2022-11-11T00:29:57.364Z,1.90
2022-11-11T00:32:27.071Z,1.77
2022-11-11T00:35:15.161Z,1.58
2022-11-11T00:37:44.456Z,1.90
2022-11-11T00:40:13.550Z,2.25
2022-11-11T00:42:41.411Z,2.35
2022-11-11T00:45:10.856Z,2.05
2022-11-11T00:47:55.796Z,1.60
2022-11-11T00:50:46.733Z,1.90
2022-11-11T00:53:15.775Z,2.00
2022-11-11T00:55:43.348Z,2.13
2022-11-11T00:58:11.091Z,2.33
2022-11-11T01:00:38.569Z,2.22
2022-11-11T01:03:06.361Z,2.45
2022-11-11T01:05:35.146Z,2.75
2022-11-11T01:10:39.560Z,2.28
2022-11-11T01:13:14.076Z,2.65
2022-11-11T01:15:43.049Z,2.55
2022-11-11T01:18:11.859Z,2.53
2022-11-11T01:23:11.580Z,2.40
2022-11-11T01:25:41.386Z,2.92
2022-11-11T01:28:09.911Z,2.40
2022-11-11T01:30:38.839Z,2.50
2022-11-11T01:33:06.335Z,2.78
2022-11-11T01:35:33.981Z,2.80
2022-11-11T01:38:02.887Z,2.47
2022-11-11T01:40:31.488Z,2.28
2022-11-11T01:43:19.207Z,2.60
2022-11-11T01:45:54.532Z,2.75
2022-11-11T01:48:46.272Z,2.47
2022-11-11T01:51:20.391Z,2.47
2022-11-11T01:54:03.801Z,2.70
2022-11-11T01:56:32.025Z,2.67
2022-11-11T01:59:04.203Z,2.72
2022-11-11T02:01:31.919Z,2.60
2022-11-11T02:04:23.121Z,2.70
2022-11-11T02:06:54.405Z,2.72
2022-11-11T02:09:25.324Z,2.03
2022-11-11T02:12:12.601Z,2.42
2022-11-11T02:17:14.376Z,2.30
2022-11-11T02:19:49.565Z,2.10
2022-11-11T02:22:24.399Z,2.13
2022-11-11T02:24:55.228Z,1.90
2022-11-11T02:27:25.609Z,2.15
2022-11-11T02:29:56.708Z,2.03
2022-11-11T02:32:24.564Z,2.28
2022-11-11T02:34:52.270Z,2.90
2022-11-11T02:37:25.735Z,1.90
2022-11-11T02:40:05.406Z,2.60
2022-11-11T02:42:36.622Z,2.33
2022-11-11T02:45:04.696Z,1.75
2022-11-11T02:47:32.331Z,1.98
2022-11-11T02:49:59.874Z,1.90
2022-11-11T02:52:27.527Z,2.22
2022-11-11T02:54:56.476Z,2.58
2022-11-11T02:57:24.279Z,2.15
2022-11-11T02:59:51.815Z,2.55
2022-11-11T03:02:19.298Z,2.03
2022-11-11T03:04:46.830Z,2.05
2022-11-11T03:07:14.421Z,2.20
2022-11-11T03:09:41.935Z,2.30
2022-11-11T03:12:10.910Z,2.65
2022-11-11T03:14:38.579Z,2.15
2022-11-11T03:17:23.832Z,2.50
2022-11-11T03:19:51.772Z,2.50
2022-11-11T03:25:23.683Z,1.50
2022-11-11T03:27:52.443Z,2.45
2022-11-11T03:30:19.923Z,2.30
2022-11-11T03:32:47.348Z,2.13
2022-11-11T03:35:14.775Z,2.55
2022-11-11T03:37:59.982Z,2.28
2022-11-11T03:40:29.168Z,2.28
2022-11-11T03:43:03.848Z,2.40
2022-11-11T03:45:31.970Z,2.20
2022-11-11T03:47:59.524Z,2.15
2022-11-11T03:50:27.013Z,2.10
2022-11-11T03:52:54.459Z,2.10
2022-11-11T03:55:21.897Z,2.13
2022-11-11T03:57:49.368Z,2.45
2022-11-11T04:00:21.398Z,2.10
2022-11-11T04:03:06.659Z,2.20
2022-11-11T04:05:51.804Z,2.65
2022-11-11T04:08:38.219Z,2.63
2022-11-11T04:11:09.971Z,2.05
2022-11-11T04:13:55.193Z,2.20
2022-11-11T04:16:23.998Z,2.20
2022-11-11T04:19:09.182Z,2.00
2022-11-11T04:21:45.883Z,2.00
2022-11-11T04:24:32.847Z,2.97
2022-11-11T04:27:01.762Z,2.45
2022-11-11T04:29:28.986Z,2.10
2022-11-11T04:32:17.754Z,2.35
2022-11-11T04:34:47.131Z,1.92
2022-11-11T04:37:15.632Z,2.22
2022-11-11T04:40:00.950Z,2.15
2022-11-11T04:42:29.480Z,3.20
2022-11-11T04:45:14.928Z,2.60
2022-11-11T04:47:55.958Z,2.28
2022-11-11T04:50:23.994Z,2.50
2022-11-11T04:52:53.283Z,2.55
2022-11-11T04:55:38.412Z,2.45
2022-11-11T04:58:05.887Z,2.08
2022-11-11T05:00:33.377Z,2.33
2022-11-11T05:03:18.268Z,2.45
2022-11-11T05:06:04.596Z,2.15
2022-11-11T05:08:49.923Z,2.58
2022-11-11T05:11:18.394Z,2.40
2022-11-11T05:14:03.265Z,2.47
2022-11-11T05:16:51.494Z,2.05
2022-11-11T05:19:38.024Z,2.00
2022-11-11T05:22:12.576Z,2.22
2022-11-11T05:24:57.535Z,2.10
2022-11-11T05:27:25.200Z,2.35
2022-11-11T05:29:52.615Z,2.13
2022-11-11T05:32:21.813Z,1.60
2022-11-11T05:34:50.879Z,2.28
2022-11-11T05:37:18.608Z,3.00
2022-11-11T05:39:46.675Z,2.35
2022-11-11T05:42:14.298Z,3.55
2022-11-11T05:44:41.831Z,4.18
2022-11-11T05:47:09.506Z,3.72
2022-11-11T05:49:36.976Z,3.40
2022-11-11T05:52:07.179Z,2.80
2022-11-11T05:54:34.658Z,3.97
2022-11-11T05:57:02.193Z,3.08
2022-11-11T05:59:29.622Z,3.80
2022-11-11T06:01:57.167Z,3.08
2022-11-11T06:04:24.650Z,2.65
2022-11-11T06:06:52.094Z,2.90
2022-11-11T06:09:20.895Z,2.10
2022-11-11T06:11:48.628Z,2.55
2022-11-11T06:14:16.070Z,2.40
2022-11-11T06:16:43.494Z,2.55
2022-11-11T06:19:10.936Z,2.63
2022-11-11T06:21:52.311Z,2.03
2022-11-11T06:24:25.263Z,2.42
2022-11-11T06:26:54.899Z,2.28
2022-11-11T06:29:22.370Z,2.42
2022-11-11T06:31:49.864Z,2.40
2022-11-11T06:34:17.421Z,2.80
2022-11-11T06:36:44.875Z,2.35
2022-11-11T06:39:12.307Z,1.88
2022-11-11T06:41:41.101Z,2.22
2022-11-11T06:44:08.543Z,2.38
2022-11-11T06:46:36.034Z,2.33
2022-11-11T06:49:03.689Z,2.55
2022-11-11T06:51:31.140Z,2.30
2022-11-11T06:53:58.578Z,2.53
2022-11-11T06:56:26.092Z,2.72
2022-11-11T06:58:54.879Z,2.63
2022-11-11T07:01:22.347Z,2.97
2022-11-11T07:03:49.816Z,2.72
2022-11-11T07:06:17.237Z,2.35
2022-11-11T07:08:44.713Z,2.28
2022-11-11T07:11:18.386Z,2.33
2022-11-11T07:13:46.341Z,2.55
2022-11-11T07:16:15.086Z,2.60
2022-11-11T07:18:42.546Z,2.45
2022-11-11T07:21:10.029Z,2.88
2022-11-11T07:23:37.474Z,3.58
2022-11-11T07:26:05.047Z,3.72
2022-11-11T07:28:32.473Z,2.65
2022-11-11T07:31:00.022Z,2.78
2022-11-11T07:33:28.822Z,2.50
2022-11-11T07:35:56.270Z,3.10
2022-11-11T07:38:24.065Z,2.50
2022-11-11T07:40:58.012Z,2.67
2022-11-11T07:43:25.539Z,2.38
2022-11-11T07:45:53.066Z,2.47
2022-11-11T07:48:20.474Z,2.60
2022-11-11T07:50:49.292Z,2.47
2022-11-11T07:53:16.750Z,3.17
2022-11-11T07:55:46.048Z,2.88
2022-11-11T07:58:13.521Z,2.92
2022-11-11T08:00:41.357Z,2.83
2022-11-11T08:03:09.209Z,2.78
2022-11-11T08:05:36.885Z,2.22
2022-11-11T08:08:07.281Z,3.25
2022-11-11T08:10:35.707Z,2.40
2022-11-11T08:13:20.899Z,3.65
2022-11-11T08:15:48.843Z,2.50
2022-11-11T08:18:16.265Z,2.55
2022-11-11T08:20:46.551Z,2.50
2022-11-11T08:24:10.558Z,2.60
2022-11-11T08:26:11.031Z,2.83
2022-11-11T08:28:38.467Z,2.90
2022-11-11T08:31:05.999Z,2.88
2022-11-11T08:33:34.983Z,2.78
2022-11-11T08:36:03.352Z,2.65
2022-11-11T08:38:32.401Z,3.20
2022-11-11T08:41:00.933Z,2.08
2022-11-11T08:43:36.822Z,2.60
2022-11-11T08:46:05.934Z,2.83
2022-11-11T08:48:33.763Z,2.90
2022-11-11T08:51:01.301Z,3.20
2022-11-11T08:53:29.190Z,2.03
2022-11-11T08:55:57.942Z,3.28
2022-11-11T08:58:25.395Z,3.35
2022-11-11T09:00:52.868Z,3.28
2022-11-11T09:03:20.352Z,4.57
2022-11-11T09:05:48.281Z,3.95
2022-11-11T09:08:15.785Z,3.40
2022-11-11T09:10:43.300Z,4.57
2022-11-11T09:13:12.180Z,5.07
2022-11-11T09:18:06.988Z,4.25
2022-11-11T09:20:34.471Z,3.95
2022-11-11T09:23:01.899Z,4.30
2022-11-11T09:25:29.333Z,5.95
2022-11-11T09:27:57.718Z,3.55
2022-11-11T09:30:27.621Z,4.63
2022-11-11T09:32:55.481Z,3.63
2022-11-11T09:35:22.960Z,5.32
2022-11-11T09:37:57.243Z,7.47
2022-11-11T09:40:27.991Z,6.85
2022-11-11T09:43:06.442Z,6.65
2022-11-11T09:45:45.975Z,7.90
2022-11-11T09:48:35.639Z,6.03
2022-11-11T09:51:07.219Z,4.45
2022-11-11T09:53:39.741Z,7.30
2022-11-11T09:56:29.771Z,6.93
2022-11-11T09:59:03.953Z,8.15
2022-11-11T10:01:38.925Z,6.35
2022-11-11T10:06:41.250Z,4.28
2022-11-11T10:09:18.510Z,6.18
2022-11-11T10:11:52.632Z,5.57
2022-11-11T10:14:20.328Z,9.82
2022-11-11T10:17:00.532Z,5.90
2022-11-11T10:19:31.911Z,7.93
2022-11-11T10:22:16.830Z,4.80
2022-11-11T10:24:51.181Z,7.07
2022-11-11T10:27:21.148Z,4.28
2022-11-11T10:29:50.524Z,6.80
2022-11-11T10:32:22.809Z,7.63
2022-11-11T10:34:50.288Z,6.35
2022-11-11T10:37:20.903Z,6.20
2022-11-11T10:40:01.591Z,5.57
2022-11-11T10:42:29.065Z,1.88
2022-11-11T10:45:03.833Z,5.47
2022-11-11T10:47:44.824Z,7.43
2022-11-11T10:50:21.203Z,7.82
2022-11-11T10:52:55.520Z,5.72
2022-11-11T10:55:27.218Z,5.22
2022-11-11T10:58:00.082Z,6.80
2022-11-11T11:00:28.778Z,9.40
2022-11-11T11:05:33.427Z,6.80
2022-11-11T11:08:08.046Z,7.97
2022-11-11T11:10:41.690Z,5.10
2022-11-11T11:13:16.312Z,8.07
2022-11-11T11:15:49.115Z,10.15
2022-11-11T11:18:19.876Z,10.52
2022-11-11T11:20:57.226Z,7.32
2022-11-11T11:23:37.131Z,5.75
2022-11-11T11:26:05.158Z,6.82
2022-11-11T11:28:34.412Z,5.63
2022-11-11T11:31:03.879Z,6.22
2022-11-11T11:33:54.539Z,4.95
2022-11-11T11:36:22.312Z,6.75
2022-11-11T11:38:51.507Z,6.65
2022-11-11T11:41:36.368Z,6.65
2022-11-11T11:44:04.051Z,6.20
2022-11-11T11:46:38.388Z,4.28
2022-11-11T11:49:21.342Z,4.53
2022-11-11T11:51:58.791Z,5.78
2022-11-11T11:54:47.757Z,5.07
2022-11-11T11:57:30.488Z,6.60
2022-11-11T12:00:04.039Z,6.00
2022-11-11T12:02:51.997Z,5.00
2022-11-11T12:05:27.403Z,5.60
2022-11-11T12:08:15.383Z,4.47
2022-11-11T12:10:50.581Z,4.95
2022-11-11T12:13:31.505Z,4.72
2022-11-11T12:19:02.499Z,4.03
2022-11-11T12:21:40.992Z,3.60
2022-11-11T12:24:32.155Z,3.83
2022-11-11T12:27:15.491Z,4.55
2022-11-11T12:29:55.140Z,4.20
2022-11-11T12:32:45.930Z,3.80
2022-11-11T12:35:32.129Z,4.65
2022-11-11T12:38:17.406Z,4.60
2022-11-11T12:40:59.859Z,3.55
2022-11-11T12:43:35.785Z,4.18
2022-11-11T12:46:12.538Z,4.47
2022-11-11T12:48:55.619Z,3.85
2022-11-11T12:51:38.226Z,3.35
2022-11-11T12:54:20.756Z,3.80
2022-11-11T12:56:56.135Z,3.38
2022-11-11T12:59:34.172Z,3.75
2022-11-11T13:02:17.272Z,3.25
2022-11-11T13:04:56.071Z,3.08
2022-11-11T13:07:53.600Z,3.10
2022-11-11T13:10:31.158Z,2.97
2022-11-11T13:13:14.300Z,3.60
2022-11-11T13:15:42.084Z,3.25
2022-11-11T13:18:16.279Z,3.10
2022-11-11T13:20:55.271Z,2.80
2022-11-11T13:23:25.603Z,3.25
2022-11-11T13:26:01.897Z,3.60
2022-11-11T13:28:33.987Z,3.28
2022-11-11T13:31:15.709Z,2.80
2022-11-11T13:33:47.692Z,2.38
2022-11-11T13:36:18.637Z,2.90
2022-11-11T13:38:49.639Z,2.53
2022-11-11T13:41:25.472Z,2.42
2022-11-11T13:43:55.780Z,3.45
2022-11-11T13:46:38.923Z,2.72
2022-11-11T13:49:09.793Z,2.50
2022-11-11T13:51:41.877Z,1.88
2022-11-11T13:54:24.988Z,2.30
2022-11-11T13:56:55.083Z,2.10
2022-11-11T13:59:26.851Z,2.38
2022-11-11T14:02:29.156Z,2.80
2022-11-11T14:05:22.855Z,2.28
2022-11-11T14:07:56.357Z,2.35
2022-11-11T14:10:50.627Z,2.42
2022-11-11T14:13:41.196Z,2.13
2022-11-11T14:16:53.599Z,3.03
2022-11-11T14:19:32.720Z,2.35
2022-11-11T14:22:01.541Z,2.22
2022-11-11T14:24:37.043Z,2.92
2022-11-11T14:27:15.560Z,2.38
2022-11-11T14:29:52.515Z,2.35
2022-11-11T14:32:35.746Z,2.88
2022-11-11T14:35:16.331Z,2.70
2022-11-11T14:38:04.266Z,1.90
2022-11-11T14:40:33.793Z,2.10
2022-11-11T14:43:22.010Z,2.72
2022-11-11T14:45:55.182Z,2.53
2022-11-11T14:48:50.599Z,2.55
2022-11-11T14:51:41.509Z,2.85
2022-11-11T14:54:21.703Z,2.85
2022-11-11T14:57:01.830Z,2.60
2022-11-11T14:59:32.583Z,2.13
2022-11-11T15:02:02.487Z,2.33
2022-11-11T15:04:37.667Z,2.35
2022-11-11T15:07:09.020Z,2.50
2022-11-11T15:09:50.955Z,3.40
2022-11-11T15:12:27.400Z,2.97
2022-11-11T15:15:03.884Z,2.33
2022-11-11T15:17:42.469Z,2.47
2022-11-11T15:20:27.618Z,2.80
2022-11-11T15:23:03.928Z,2.55
2022-11-11T15:25:46.316Z,3.88
2022-11-11T15:28:36.953Z,10.73
2022-11-11T15:31:16.257Z,6.13
2022-11-11T15:33:53.784Z,11.35
2022-11-11T15:36:34.222Z,8.93
2022-11-11T15:39:08.133Z,6.07
2022-11-11T15:41:38.964Z,4.82
2022-11-11T15:44:14.641Z,5.38
2022-11-11T15:46:44.152Z,5.28
2022-11-11T15:49:15.840Z,2.92
2022-11-11T15:51:43.550Z,3.20
2022-11-11T15:54:17.800Z,4.15
2022-11-11T15:56:45.381Z,3.00
2022-11-11T15:59:23.738Z,2.60
2022-11-11T16:01:52.339Z,3.00
2022-11-11T16:07:19.732Z,2.20
2022-11-11T16:09:47.335Z,2.15
2022-11-11T16:12:20.525Z,1.92
2022-11-11T16:14:51.288Z,2.10
2022-11-11T16:17:20.543Z,2.58
2022-11-11T16:19:51.005Z,2.33
2022-11-11T16:22:22.514Z,2.75
2022-11-11T16:24:51.499Z,2.67
2022-11-11T16:27:21.944Z,2.53
2022-11-11T16:29:49.386Z,2.47
2022-11-11T16:32:34.244Z,2.58
2022-11-11T16:35:03.339Z,2.58
2022-11-11T16:37:30.820Z,2.60
2022-11-11T16:40:18.353Z,2.45
2022-11-11T16:42:46.032Z,3.33
2022-11-11T16:45:20.957Z,3.60
2022-11-11T16:47:49.977Z,3.92
2022-11-11T16:50:22.927Z,4.18
2022-11-11T16:52:54.061Z,3.90
2022-11-11T16:55:27.057Z,3.13
2022-11-11T16:57:55.107Z,3.47
2022-11-11T17:00:24.756Z,3.60
2022-11-11T17:03:10.184Z,3.58
2022-11-11T17:06:00.603Z,3.63
2022-11-11T17:08:35.019Z,2.80
2022-11-11T17:11:02.652Z,2.83
2022-11-11T17:13:30.244Z,2.75
2022-11-11T17:16:04.144Z,2.75
2022-11-11T17:18:33.643Z,2.58
2022-11-11T17:21:02.888Z,2.13
2022-11-11T17:23:30.377Z,1.63
2022-11-11T17:26:00.003Z,2.80
2022-11-11T17:28:28.791Z,2.22
2022-11-11T17:30:56.224Z,2.15
2022-11-11T17:33:27.197Z,2.40
2022-11-11T17:35:57.902Z,2.47
2022-11-11T17:38:26.680Z,2.40
2022-11-11T17:40:54.242Z,2.80
2022-11-11T17:43:21.771Z,2.97
2022-11-11T17:45:49.241Z,2.83
2022-11-11T17:48:16.647Z,3.50
2022-11-11T17:50:44.088Z,2.22
2022-11-11T17:53:16.401Z,2.13
2022-11-11T17:55:53.119Z,2.58
2022-11-11T17:58:20.591Z,2.30
2022-11-11T18:00:48.045Z,2.45
2022-11-11T18:03:15.516Z,2.17
2022-11-11T18:05:42.940Z,2.13
2022-11-11T18:08:10.391Z,2.33
2022-11-11T18:10:37.867Z,2.22
2022-11-11T18:13:06.652Z,2.20
2022-11-11T18:15:34.799Z,2.10
2022-11-11T18:18:02.243Z,2.25
2022-11-11T18:20:29.679Z,2.10
2022-11-11T18:22:57.400Z,2.10
2022-11-11T18:25:24.998Z,2.45
2022-11-11T18:27:54.130Z,2.92
2022-11-11T18:30:22.939Z,3.08
2022-11-11T18:32:50.393Z,2.70
2022-11-11T18:35:18.578Z,2.85
2022-11-11T18:37:46.883Z,2.28
2022-11-11T18:40:14.770Z,3.05
2022-11-11T18:42:42.251Z,2.38
2022-11-11T18:45:10.195Z,2.42
2022-11-11T18:47:38.961Z,1.92
2022-11-11T18:52:34.044Z,2.30
2022-11-11T18:55:01.493Z,2.40
2022-11-11T18:57:28.911Z,1.90
2022-11-11T18:59:56.366Z,2.13
2022-11-11T19:02:23.821Z,1.88
2022-11-11T19:04:52.641Z,2.03
2022-11-11T19:07:20.125Z,2.47
2022-11-11T19:09:47.603Z,2.22
2022-11-11T19:12:15.063Z,2.63
2022-11-11T19:14:42.484Z,1.85
2022-11-11T19:17:10.122Z,2.22
2022-11-11T19:19:37.573Z,2.75
2022-11-11T19:22:06.324Z,2.67
2022-11-11T19:27:01.634Z,2.15
2022-11-11T19:29:29.083Z,2.58
2022-11-11T19:31:56.548Z,2.53
2022-11-11T19:34:23.968Z,2.53
2022-11-11T19:36:51.409Z,2.83
2022-11-11T19:39:20.263Z,2.85
2022-11-11T19:41:47.746Z,2.70
2022-11-11T19:44:15.213Z,2.70
2022-11-11T19:46:43.257Z,2.92
2022-11-11T19:49:10.938Z,3.20
2022-11-11T19:51:38.398Z,3.20
2022-11-11T19:54:05.883Z,3.33
2022-11-11T19:56:35.392Z,3.03
2022-11-11T19:59:04.013Z,3.63
2022-11-11T20:01:33.893Z,3.33
2022-11-11T20:04:01.376Z,3.20
2022-11-11T20:06:30.489Z,3.65
2022-11-11T20:09:01.006Z,2.92
2022-11-11T20:11:29.345Z,3.33
2022-11-11T20:13:58.628Z,3.10
2022-11-11T20:16:26.184Z,3.22
2022-11-11T20:18:55.609Z,3.25
2022-11-11T20:21:23.293Z,3.53
2022-11-11T20:23:50.716Z,3.60
2022-11-11T20:26:18.327Z,3.38
2022-11-11T20:28:45.891Z,3.78
2022-11-11T20:31:16.877Z,3.75
2022-11-11T20:33:44.936Z,4.70
2022-11-11T20:36:14.549Z,4.22
2022-11-11T20:38:42.034Z,4.25
2022-11-11T20:41:12.208Z,3.78
2022-11-11T20:43:40.066Z,4.18
2022-11-11T20:46:09.479Z,3.95
2022-11-11T20:48:40.503Z,4.10
2022-11-11T20:51:10.656Z,3.72
2022-11-11T20:53:38.540Z,4.65
2022-11-11T20:56:07.862Z,3.38
2022-11-11T20:58:36.244Z,4.18
2022-11-11T21:01:04.033Z,4.25
2022-11-11T21:03:32.308Z,5.18
2022-11-11T21:06:05.761Z,4.93
2022-11-11T21:08:33.511Z,5.43
2022-11-11T21:11:01.360Z,4.70
2022-11-11T21:13:30.133Z,5.03
2022-11-11T21:18:30.948Z,5.50
2022-11-11T21:20:58.398Z,5.75
2022-11-11T21:23:27.651Z,4.93
2022-11-11T21:26:01.934Z,5.15
2022-11-11T21:28:29.424Z,5.80
2022-11-11T21:30:59.282Z,5.07
2022-11-11T21:33:27.108Z,5.95
2022-11-11T21:36:01.110Z,5.30
2022-11-11T21:38:29.906Z,5.38
2022-11-11T21:43:29.264Z,5.20
2022-11-11T21:46:00.375Z,4.95
2022-11-11T21:48:27.867Z,5.03
2022-11-11T21:51:02.123Z,5.07
2022-11-11T21:53:30.930Z,4.45
2022-11-11T21:58:30.146Z,4.90
2022-11-11T22:01:04.875Z,4.40
2022-11-11T22:03:33.029Z,4.72
2022-11-11T22:06:05.688Z,4.47
2022-11-11T22:08:35.088Z,3.85
2022-11-11T22:11:04.373Z,4.32
2022-11-11T22:13:32.341Z,4.40
2022-11-11T22:16:01.699Z,4.72
2022-11-11T22:18:29.424Z,4.22
2022-11-11T22:21:03.541Z,4.47
2022-11-11T22:23:31.108Z,4.07
2022-11-11T22:26:03.959Z,4.15
2022-11-11T22:28:31.833Z,4.43
2022-11-11T22:31:06.779Z,4.63
2022-11-11T22:36:03.023Z,4.15
2022-11-11T22:38:30.781Z,4.18
2022-11-11T22:41:03.624Z,4.75
2022-11-11T22:43:57.876Z,4.80
2022-11-11T22:46:24.851Z,4.55
2022-11-11T22:48:55.125Z,4.95
2022-11-11T22:51:24.146Z,5.13
2022-11-11T22:53:55.875Z,4.40
2022-11-11T22:56:25.572Z,4.97
2022-11-11T22:58:53.372Z,4.65
2022-11-11T23:01:27.953Z,4.75
2022-11-11T23:03:58.111Z,5.03
2022-11-11T23:06:28.068Z,3.92
2022-11-11T23:08:55.572Z,3.95
2022-11-11T23:11:26.317Z,4.43
2022-11-11T23:13:59.260Z,4.03
2022-11-11T23:16:26.707Z,4.00
2022-11-11T23:18:54.155Z,4.38
2022-11-11T23:21:23.655Z,4.35
2022-11-11T23:23:52.181Z,4.03
2022-11-11T23:26:21.575Z,4.00
2022-11-11T23:28:50.571Z,4.13
2022-11-11T23:31:20.842Z,3.47
2022-11-11T23:33:50.507Z,4.22
2022-11-11T23:36:20.255Z,4.32
2022-11-11T23:38:48.289Z,3.83
2022-11-11T23:41:16.142Z,3.67
2022-11-11T23:43:43.847Z,3.83
2022-11-11T23:46:12.940Z,4.43
2022-11-11T23:48:40.440Z,3.83
2022-11-11T23:51:08.259Z,3.88
2022-11-11T23:53:35.725Z,3.08
2022-11-11T23:56:03.493Z,3.58
2022-11-11T23:58:31.352Z,4.25
